createdAt,value
2023-04-16T00:02:14.965Z,10.93
2023-04-16T00:04:41.910Z,10.00
2023-04-16T00:07:09.326Z,12.27
2023-04-16T00:09:36.376Z,10.27
2023-04-16T00:12:03.520Z,11.77
2023-04-16T00:14:30.823Z,11.35
2023-04-16T00:16:58.107Z,12.82
2023-04-16T00:19:24.963Z,14.77
2023-04-16T00:21:52.046Z,12.18
2023-04-16T00:24:19.100Z,8.93
2023-04-16T00:26:47.018Z,7.60
2023-04-16T00:29:14.253Z,13.77
2023-04-16T00:31:41.348Z,12.27
2023-04-16T00:34:08.684Z,11.55
2023-04-16T00:36:36.061Z,13.85
2023-04-16T00:39:03.281Z,11.05
2023-04-16T00:41:30.434Z,10.48
2023-04-16T00:43:57.429Z,12.20
2023-04-16T00:46:25.457Z,10.52
2023-04-16T00:48:54.422Z,11.07
2023-04-16T00:51:21.797Z,7.38
2023-04-16T00:53:49.174Z,13.30
2023-04-16T00:56:17.646Z,9.15
2023-04-16T00:58:45.036Z,10.30
2023-04-16T01:01:14.508Z,10.55
2023-04-16T01:03:45.911Z,6.85
2023-04-16T01:06:13.876Z,10.68
2023-04-16T01:08:40.988Z,14.25
2023-04-16T01:11:08.211Z,10.77
2023-04-16T01:13:39.489Z,10.68
2023-04-16T01:16:11.723Z,10.45
2023-04-16T01:18:39.365Z,12.38
2023-04-16T01:21:07.233Z,10.98
2023-04-16T01:23:34.272Z,13.93
2023-04-16T01:26:03.571Z,7.88
2023-04-16T01:28:31.045Z,9.18
2023-04-16T01:30:58.142Z,9.80
2023-04-16T01:33:49.485Z,6.18
2023-04-16T01:36:17.868Z,9.27
2023-04-16T01:38:45.695Z,7.65
2023-04-16T01:41:12.735Z,9.27
2023-04-16T01:43:42.719Z,10.02
2023-04-16T01:46:18.246Z,12.95
2023-04-16T01:48:45.338Z,7.50
2023-04-16T01:51:12.779Z,8.48
2023-04-16T01:53:39.877Z,5.82
2023-04-16T01:56:07.037Z,10.95
2023-04-16T01:58:36.311Z,8.75
2023-04-16T02:01:04.384Z,6.45
2023-04-16T02:03:31.916Z,8.25
2023-04-16T02:06:02.319Z,6.10
2023-04-16T02:08:29.366Z,7.82
2023-04-16T02:11:04.461Z,6.50
2023-04-16T02:13:31.902Z,8.98
2023-04-16T02:15:59.172Z,7.18
2023-04-16T02:18:44.377Z,8.20
2023-04-16T02:21:14.168Z,7.38
2023-04-16T02:23:43.005Z,10.50
2023-04-16T02:26:10.614Z,15.95
2023-04-16T02:28:38.297Z,5.97
2023-04-16T02:31:06.177Z,9.40
2023-04-16T02:33:40.303Z,8.15
2023-04-16T02:36:07.934Z,7.40
2023-04-16T02:38:34.853Z,5.28
2023-04-16T02:41:01.910Z,5.65
2023-04-16T02:43:28.889Z,9.10
2023-04-16T02:45:59.335Z,5.70
2023-04-16T02:48:26.539Z,7.35
2023-04-16T02:50:53.403Z,7.95
2023-04-16T02:53:28.447Z,10.98
2023-04-16T02:55:55.891Z,8.38
2023-04-16T02:58:24.806Z,8.48
2023-04-16T03:00:54.375Z,11.93
2023-04-16T03:03:22.133Z,7.65
2023-04-16T03:05:49.250Z,5.80
2023-04-16T03:08:16.976Z,7.47
2023-04-16T03:10:44.347Z,10.00
2023-04-16T03:13:11.133Z,6.25
2023-04-16T03:15:39.431Z,8.25
2023-04-16T03:18:06.408Z,7.53
2023-04-16T03:20:35.492Z,10.98
2023-04-16T03:23:02.322Z,7.63
2023-04-16T03:25:29.315Z,12.48
2023-04-16T03:27:56.399Z,8.90
2023-04-16T03:30:23.683Z,8.77
2023-04-16T03:32:51.218Z,11.13
2023-04-16T03:35:18.864Z,9.25
2023-04-16T03:37:45.653Z,6.90
2023-04-16T03:40:12.950Z,16.67
2023-04-16T03:42:40.300Z,9.10
2023-04-16T03:45:09.629Z,8.35
2023-04-16T03:47:38.347Z,11.73
2023-04-16T03:50:05.768Z,12.15
2023-04-16T03:52:32.756Z,6.97
2023-04-16T03:54:59.651Z,11.35
2023-04-16T03:57:28.753Z,10.27
2023-04-16T04:00:01.465Z,9.18
2023-04-16T04:02:41.617Z,11.55
2023-04-16T04:05:15.975Z,6.22
2023-04-16T04:07:44.398Z,9.43
2023-04-16T04:10:11.721Z,11.30
2023-04-16T04:12:41.457Z,12.27
2023-04-16T04:15:09.521Z,10.85
2023-04-16T04:17:36.489Z,9.60
2023-04-16T04:20:03.859Z,8.77
2023-04-16T04:22:32.215Z,9.95
2023-04-16T04:24:59.136Z,7.55
2023-04-16T04:27:28.765Z,10.20
2023-04-16T04:29:55.639Z,12.10
2023-04-16T04:32:23.130Z,7.00
2023-04-16T04:34:50.326Z,6.65
2023-04-16T04:37:19.637Z,11.30
2023-04-16T04:39:46.715Z,10.65
2023-04-16T04:42:13.742Z,14.02
2023-04-16T04:44:41.999Z,10.50
2023-04-16T04:47:09.687Z,6.85
2023-04-16T04:49:37.710Z,8.93
2023-04-16T04:52:04.740Z,6.18
2023-04-16T04:54:32.888Z,8.18
2023-04-16T04:57:01.333Z,12.25
2023-04-16T04:59:29.792Z,9.50
2023-04-16T05:01:57.013Z,10.73
2023-04-16T05:04:23.828Z,9.60
2023-04-16T05:06:51.914Z,8.05
2023-04-16T05:09:18.536Z,13.10
2023-04-16T05:11:45.544Z,11.25
2023-04-16T05:14:13.773Z,12.88
2023-04-16T05:16:40.762Z,10.52
2023-04-16T05:19:08.110Z,12.77
2023-04-16T05:21:35.602Z,10.95
2023-04-16T05:24:02.453Z,9.65
2023-04-16T05:26:29.391Z,10.27
2023-04-16T05:28:56.224Z,13.68
2023-04-16T05:31:23.366Z,16.17
2023-04-16T05:33:50.239Z,16.45
2023-04-16T05:36:17.148Z,13.57
2023-04-16T05:38:43.965Z,11.05
2023-04-16T05:41:10.818Z,12.93
2023-04-16T05:43:37.646Z,11.63
2023-04-16T05:46:04.776Z,15.45
2023-04-16T05:48:33.703Z,16.55
2023-04-16T05:51:02.915Z,9.98
2023-04-16T05:53:29.921Z,18.63
2023-04-16T05:56:01.768Z,11.73
2023-04-16T06:00:55.705Z,10.25
2023-04-16T06:03:22.666Z,14.98
2023-04-16T06:05:51.807Z,11.27
2023-04-16T06:08:19.083Z,21.98
2023-04-16T06:10:47.288Z,16.85
2023-04-16T06:13:14.360Z,12.35
2023-04-16T06:15:41.489Z,14.18
2023-04-16T06:18:08.376Z,12.82
2023-04-16T06:20:35.735Z,12.35
2023-04-16T06:23:02.777Z,10.25
2023-04-16T06:25:29.804Z,11.68
2023-04-16T06:27:56.681Z,15.27
2023-04-16T06:30:24.091Z,10.60
2023-04-16T06:32:51.576Z,9.50
2023-04-16T06:35:20.239Z,8.93
2023-04-16T06:37:49.535Z,12.38
2023-04-16T06:40:16.723Z,8.57
2023-04-16T06:42:45.381Z,12.73
2023-04-16T06:45:13.048Z,12.07
2023-04-16T06:47:39.973Z,15.68
2023-04-16T06:50:07.960Z,10.45
2023-04-16T06:52:34.830Z,10.27
2023-04-16T06:55:02.257Z,9.93
2023-04-16T06:57:29.093Z,12.02
2023-04-16T06:59:56.081Z,12.00
2023-04-16T07:02:24.606Z,9.88
2023-04-16T07:04:52.797Z,9.60
2023-04-16T07:07:19.711Z,11.52
2023-04-16T07:09:46.742Z,8.15
2023-04-16T07:12:16.528Z,8.57
2023-04-16T07:14:43.452Z,8.38
2023-04-16T07:17:10.567Z,8.75
2023-04-16T07:19:37.738Z,9.07
2023-04-16T07:22:04.860Z,9.77
2023-04-16T07:24:32.483Z,11.75
2023-04-16T07:26:59.406Z,11.55
2023-04-16T07:29:26.349Z,9.55
2023-04-16T07:31:53.154Z,9.80
2023-04-16T07:34:19.972Z,8.88
2023-04-16T07:36:47.083Z,8.77
2023-04-16T07:39:14.060Z,7.70
2023-04-16T07:41:41.399Z,10.30
2023-04-16T07:44:08.380Z,10.98
2023-04-16T07:46:43.570Z,8.43
2023-04-16T07:49:12.757Z,9.00
2023-04-16T07:51:40.860Z,8.43
2023-04-16T07:54:07.869Z,8.75
2023-04-16T07:56:34.841Z,10.35
2023-04-16T07:59:14.301Z,10.38
2023-04-16T08:01:46.243Z,12.50
2023-04-16T08:04:14.389Z,12.10
2023-04-16T08:06:41.490Z,10.55
2023-04-16T08:09:08.560Z,11.63
2023-04-16T08:11:36.840Z,14.98
2023-04-16T08:14:03.717Z,12.75
2023-04-16T08:16:30.675Z,12.15
2023-04-16T08:18:57.380Z,11.57
2023-04-16T08:21:24.264Z,14.07
2023-04-16T08:23:51.526Z,14.65
2023-04-16T08:26:18.347Z,16.42
2023-04-16T08:28:46.655Z,14.30
2023-04-16T08:31:13.666Z,12.27
2023-04-16T08:33:41.983Z,14.77
2023-04-16T08:36:09.725Z,13.50
2023-04-16T08:38:36.962Z,13.55
2023-04-16T08:41:07.372Z,12.40
2023-04-16T08:43:37.758Z,10.93
2023-04-16T08:46:08.347Z,9.40
2023-04-16T08:48:35.545Z,16.30
2023-04-16T08:51:03.199Z,13.35
2023-04-16T08:53:42.334Z,14.45
2023-04-16T08:56:11.993Z,12.20
2023-04-16T08:58:39.776Z,9.63
2023-04-16T09:01:09.432Z,17.58
2023-04-16T09:03:36.949Z,16.95
2023-04-16T09:06:04.858Z,13.85
2023-04-16T09:08:32.323Z,16.35
2023-04-16T09:10:59.808Z,16.30
2023-04-16T09:13:27.469Z,12.13
2023-04-16T09:15:57.287Z,9.02
2023-04-16T09:18:24.945Z,14.35
2023-04-16T09:20:52.495Z,20.05
2023-04-16T09:23:22.504Z,16.13
2023-04-16T09:25:49.325Z,14.98
2023-04-16T09:28:42.317Z,11.38
2023-04-16T09:31:10.019Z,11.85
2023-04-16T09:33:37.418Z,13.77
2023-04-16T09:36:05.150Z,13.80
2023-04-16T09:38:52.295Z,16.85
2023-04-16T09:41:19.998Z,12.07
2023-04-16T09:43:58.356Z,16.48
2023-04-16T09:46:29.977Z,11.07
2023-04-16T09:51:26.288Z,10.98
2023-04-16T09:53:55.967Z,18.90
2023-04-16T09:56:26.549Z,10.73
2023-04-16T09:59:03.090Z,13.85
2023-04-16T10:01:31.078Z,13.25
2023-04-16T10:04:02.152Z,15.13
2023-04-16T10:06:29.611Z,13.15
2023-04-16T10:08:57.281Z,14.90
2023-04-16T10:11:24.669Z,13.85
2023-04-16T10:13:54.752Z,10.88
2023-04-16T10:16:22.944Z,11.23
2023-04-16T10:18:49.813Z,13.02
2023-04-16T10:21:16.876Z,10.75
2023-04-16T10:23:44.441Z,12.73
2023-04-16T10:26:11.735Z,12.50
2023-04-16T10:28:39.537Z,11.80
2023-04-16T10:31:12.674Z,16.75
2023-04-16T10:33:44.362Z,15.63
2023-04-16T10:36:16.250Z,10.65
2023-04-16T10:38:47.361Z,12.90
2023-04-16T10:41:14.661Z,8.45
2023-04-16T10:43:45.714Z,11.88
2023-04-16T10:46:24.760Z,10.75
2023-04-16T10:48:54.743Z,15.00
2023-04-16T10:51:35.539Z,14.98
2023-04-16T10:54:29.914Z,13.63
2023-04-16T10:57:09.068Z,12.23
2023-04-16T10:59:37.700Z,12.95
2023-04-16T11:02:11.872Z,15.52
2023-04-16T11:04:42.199Z,14.70
2023-04-16T11:07:15.101Z,15.98
2023-04-16T11:09:51.397Z,16.75
2023-04-16T11:12:19.279Z,17.58
2023-04-16T11:14:51.648Z,15.68
2023-04-16T11:17:19.968Z,17.50
2023-04-16T11:19:47.343Z,12.05
2023-04-16T11:22:17.358Z,21.23
2023-04-16T11:24:47.624Z,15.13
2023-04-16T11:27:15.376Z,17.25
2023-04-16T11:29:42.514Z,15.07
2023-04-16T11:32:09.592Z,16.92
2023-04-16T11:34:45.082Z,17.05
2023-04-16T11:37:12.587Z,17.50
2023-04-16T11:39:50.677Z,15.95
2023-04-16T11:42:27.096Z,16.73
2023-04-16T11:44:55.952Z,14.65
2023-04-16T11:47:27.108Z,13.70
2023-04-16T11:49:54.118Z,15.13
2023-04-16T11:52:33.786Z,14.43
2023-04-16T11:55:03.018Z,17.23
2023-04-16T11:57:31.352Z,16.75
2023-04-16T12:00:02.140Z,14.05
2023-04-16T12:02:55.658Z,17.08
2023-04-16T12:05:34.079Z,19.02
2023-04-16T12:08:09.005Z,13.90
2023-04-16T12:10:37.982Z,22.75
2023-04-16T12:13:16.025Z,15.75
2023-04-16T12:15:47.210Z,16.00
2023-04-16T12:18:16.443Z,23.38
2023-04-16T12:20:44.315Z,14.55
2023-04-16T12:23:33.127Z,15.63
2023-04-16T12:26:10.573Z,16.42
2023-04-16T12:28:39.457Z,15.85
2023-04-16T12:31:08.125Z,15.57
2023-04-16T12:33:35.295Z,15.30
2023-04-16T12:36:16.694Z,17.90
2023-04-16T12:38:43.643Z,15.68
2023-04-16T12:41:10.560Z,14.05
2023-04-16T12:43:37.663Z,15.63
2023-04-16T12:46:05.246Z,13.70
2023-04-16T12:48:32.728Z,14.85
2023-04-16T12:50:59.711Z,15.55
2023-04-16T12:53:27.229Z,18.02
2023-04-16T12:55:54.445Z,16.52
2023-04-16T12:58:21.598Z,16.00
2023-04-16T13:00:48.673Z,17.65
2023-04-16T13:03:16.285Z,16.30
2023-04-16T13:05:43.300Z,16.60
2023-04-16T13:08:10.412Z,19.27
2023-04-16T13:10:37.493Z,15.80
2023-04-16T13:13:06.467Z,17.27
2023-04-16T13:15:33.340Z,14.88
2023-04-16T13:18:00.260Z,15.23
2023-04-16T13:20:27.199Z,16.23
2023-04-16T13:22:54.591Z,14.90
2023-04-16T13:25:21.454Z,16.40
2023-04-16T13:27:48.349Z,11.95
2023-04-16T13:30:16.292Z,17.15
2023-04-16T13:32:43.556Z,17.65
2023-04-16T13:35:10.866Z,15.30
2023-04-16T13:37:38.448Z,19.45
2023-04-16T13:40:05.903Z,18.77
2023-04-16T13:42:32.661Z,15.43
2023-04-16T13:44:59.299Z,20.25
2023-04-16T13:47:28.530Z,15.30
2023-04-16T13:49:55.561Z,13.38
2023-04-16T13:52:22.256Z,22.45
2023-04-16T13:54:49.023Z,22.20
2023-04-16T13:57:20.035Z,17.70
2023-04-16T13:59:46.813Z,18.02
2023-04-16T14:02:13.796Z,18.65
2023-04-16T14:04:40.638Z,18.80
2023-04-16T14:07:07.359Z,16.25
2023-04-16T14:09:34.090Z,19.60
2023-04-16T14:12:01.084Z,15.55
2023-04-16T14:14:27.890Z,12.88
2023-04-16T14:16:55.511Z,16.20
2023-04-16T14:19:22.538Z,15.02
2023-04-16T14:21:49.473Z,23.55
2023-04-16T14:24:16.285Z,19.10
2023-04-16T14:26:43.645Z,19.48
2023-04-16T14:29:10.447Z,20.40
2023-04-16T14:31:37.540Z,22.55
2023-04-16T14:34:04.435Z,20.63
2023-04-16T14:36:31.456Z,21.80
2023-04-16T14:38:58.206Z,18.80
2023-04-16T14:41:25.707Z,20.92
2023-04-16T14:43:52.602Z,17.88
2023-04-16T14:46:19.852Z,21.70
2023-04-16T14:48:46.813Z,21.73
2023-04-16T14:51:13.459Z,28.00
2023-04-16T14:53:40.097Z,19.38
2023-04-16T14:56:07.072Z,21.63
2023-04-16T14:58:37.289Z,17.63
2023-04-16T15:01:05.959Z,17.60
2023-04-16T15:03:33.074Z,20.35
2023-04-16T15:06:02.495Z,20.17
2023-04-16T15:08:29.148Z,22.45
2023-04-16T15:10:56.017Z,16.33
2023-04-16T15:13:22.782Z,24.27
2023-04-16T15:15:49.779Z,24.70
2023-04-16T15:18:16.875Z,18.40
2023-04-16T15:20:43.696Z,25.08
2023-04-16T15:23:10.628Z,22.08
2023-04-16T15:25:37.778Z,19.45
2023-04-16T15:28:06.226Z,23.25
2023-04-16T15:30:33.012Z,23.08
2023-04-16T15:32:59.768Z,20.60
2023-04-16T15:35:26.558Z,20.30
2023-04-16T15:37:53.968Z,22.48
2023-04-16T15:40:21.184Z,18.23
2023-04-16T15:42:48.217Z,22.65
2023-04-16T15:45:14.868Z,22.38
2023-04-16T15:47:42.195Z,21.73
2023-04-16T15:50:09.670Z,22.48
2023-04-16T15:52:38.739Z,20.85
2023-04-16T15:55:06.887Z,19.58
2023-04-16T15:57:34.670Z,16.85
2023-04-16T16:00:06.345Z,20.17
2023-04-16T16:02:34.238Z,19.77
2023-04-16T16:05:01.262Z,19.17
2023-04-16T16:07:28.342Z,27.27
2023-04-16T16:09:56.563Z,28.98
2023-04-16T16:12:23.946Z,22.35
2023-04-16T16:14:51.005Z,22.63
2023-04-16T16:17:19.301Z,22.00
2023-04-16T16:19:46.669Z,23.77
2023-04-16T16:22:13.989Z,24.98
2023-04-16T16:24:40.751Z,24.92
2023-04-16T16:27:07.432Z,19.50
2023-04-16T16:29:34.229Z,29.27
2023-04-16T16:32:01.270Z,20.92
2023-04-16T16:34:28.277Z,25.55
2023-04-16T16:36:55.043Z,22.48
2023-04-16T16:39:24.476Z,19.88
2023-04-16T16:41:54.658Z,23.98
2023-04-16T16:44:22.178Z,22.95
2023-04-16T16:46:49.425Z,19.27
2023-04-16T16:49:16.880Z,19.40
2023-04-16T16:51:47.721Z,23.77
2023-04-16T16:54:14.898Z,20.40
2023-04-16T16:56:41.565Z,25.40
2023-04-16T16:59:09.173Z,24.30
2023-04-16T17:01:36.401Z,18.23
2023-04-16T17:04:03.414Z,23.48
2023-04-16T17:06:30.584Z,22.73
2023-04-16T17:08:57.340Z,20.80
2023-04-16T17:11:27.005Z,20.40
2023-04-16T17:13:53.842Z,20.42
2023-04-16T17:16:20.834Z,18.77
2023-04-16T17:18:47.582Z,25.70
2023-04-16T17:21:16.426Z,17.98
2023-04-16T17:23:43.501Z,27.65
2023-04-16T17:26:10.364Z,20.27
2023-04-16T17:28:37.316Z,19.25
2023-04-16T17:31:07.203Z,16.25
2023-04-16T17:33:34.273Z,18.05
2023-04-16T17:36:01.310Z,16.83
2023-04-16T17:38:28.100Z,21.10
2023-04-16T17:40:56.960Z,19.80
2023-04-16T17:43:24.608Z,20.02
2023-04-16T17:45:51.402Z,26.75
2023-04-16T17:48:18.053Z,19.48
2023-04-16T17:50:45.109Z,20.13
2023-04-16T17:53:14.509Z,24.75
2023-04-16T17:55:50.940Z,22.83
2023-04-16T17:58:25.531Z,22.88
2023-04-16T18:00:52.481Z,21.80
2023-04-16T18:03:21.402Z,24.83
2023-04-16T18:05:49.018Z,22.80
2023-04-16T18:08:16.089Z,21.98
2023-04-16T18:10:42.950Z,21.33
2023-04-16T18:13:09.908Z,20.33
2023-04-16T18:15:41.600Z,27.00
2023-04-16T18:18:08.780Z,22.25
2023-04-16T18:20:35.784Z,22.17
2023-04-16T18:23:03.497Z,23.85
2023-04-16T18:25:34.951Z,22.08
2023-04-16T18:28:03.920Z,20.10
2023-04-16T18:30:31.313Z,21.48
2023-04-16T18:35:27.961Z,21.05
2023-04-16T18:37:54.661Z,20.10
2023-04-16T18:40:21.495Z,22.20
2023-04-16T18:42:48.679Z,23.08
2023-04-16T18:45:21.100Z,24.90
2023-04-16T18:47:50.250Z,30.48
2023-04-16T18:50:17.359Z,29.60
2023-04-16T18:52:44.256Z,29.15
2023-04-16T18:55:11.314Z,24.15
2023-04-16T18:57:38.230Z,23.88
2023-04-16T19:00:11.198Z,27.38
2023-04-16T19:02:41.132Z,21.10
2023-04-16T19:05:10.108Z,24.45
2023-04-16T19:07:37.792Z,24.20
2023-04-16T19:10:05.596Z,21.00
2023-04-16T19:12:32.634Z,24.98
2023-04-16T19:14:59.663Z,22.65
2023-04-16T19:17:28.095Z,21.73
2023-04-16T19:19:54.877Z,22.52
2023-04-16T19:22:29.533Z,26.55
2023-04-16T19:24:56.599Z,23.90
2023-04-16T19:27:24.648Z,22.58
2023-04-16T19:29:51.616Z,26.38
2023-04-16T19:32:26.599Z,24.85
2023-04-16T19:34:53.364Z,27.42
2023-04-16T19:37:20.660Z,28.00
2023-04-16T19:39:47.487Z,21.77
2023-04-16T19:42:15.733Z,21.95
2023-04-16T19:44:42.760Z,21.45
2023-04-16T19:47:11.869Z,26.83
2023-04-16T19:49:38.753Z,20.80
2023-04-16T19:52:07.974Z,25.45
2023-04-16T19:54:37.267Z,21.92
2023-04-16T19:57:04.378Z,25.77
2023-04-16T19:59:32.287Z,21.98
2023-04-16T20:01:59.106Z,26.25
2023-04-16T20:04:26.080Z,23.85
2023-04-16T20:06:53.649Z,22.30
2023-04-16T20:09:20.444Z,26.17
2023-04-16T20:11:47.863Z,26.80
2023-04-16T20:14:14.780Z,26.08
2023-04-16T20:16:43.703Z,27.10
2023-04-16T20:19:11.129Z,32.03
2023-04-16T20:21:40.481Z,23.65
2023-04-16T20:24:10.586Z,27.60
2023-04-16T20:26:37.965Z,23.92
2023-04-16T20:29:04.980Z,23.48
2023-04-16T20:31:32.815Z,27.67
2023-04-16T20:33:59.503Z,27.20
2023-04-16T20:36:26.374Z,22.15
2023-04-16T20:38:54.047Z,26.00
2023-04-16T20:41:21.468Z,25.13
2023-04-16T20:43:50.381Z,25.40
2023-04-16T20:46:17.823Z,24.73
2023-04-16T20:48:45.108Z,27.15
2023-04-16T20:51:12.356Z,30.00
2023-04-16T20:53:41.231Z,27.90
2023-04-16T20:56:09.288Z,25.25
2023-04-16T20:58:36.221Z,27.10
2023-04-16T21:01:03.092Z,26.92
2023-04-16T21:03:30.128Z,29.38
2023-04-16T21:05:57.361Z,29.15
2023-04-16T21:08:24.669Z,29.00
2023-04-16T21:10:51.702Z,28.00
2023-04-16T21:13:19.076Z,21.52
2023-04-16T21:15:46.672Z,24.08
2023-04-16T21:18:17.247Z,27.00
2023-04-16T21:20:44.588Z,28.50
2023-04-16T21:23:13.571Z,25.63
2023-04-16T21:25:40.551Z,31.58
2023-04-16T21:28:07.592Z,29.25
2023-04-16T21:30:34.561Z,29.77
2023-04-16T21:33:02.698Z,25.95
2023-04-16T21:35:32.112Z,29.52
2023-04-16T21:38:00.348Z,29.23
2023-04-16T21:40:27.337Z,28.60
2023-04-16T21:42:55.846Z,29.98
2023-04-16T21:45:22.733Z,26.55
2023-04-16T21:47:53.998Z,28.38
2023-04-16T21:50:21.050Z,26.98
2023-04-16T21:52:50.110Z,27.25
2023-04-16T21:55:17.092Z,26.30
2023-04-16T21:57:44.018Z,36.38
2023-04-16T22:00:15.333Z,30.38
2023-04-16T22:02:42.921Z,29.55
2023-04-16T22:05:10.859Z,28.60
2023-04-16T22:07:38.056Z,34.28
2023-04-16T22:10:05.254Z,28.80
2023-04-16T22:12:32.411Z,30.23
2023-04-16T22:15:02.790Z,31.30
2023-04-16T22:17:30.478Z,29.08
2023-04-16T22:20:00.727Z,30.65
2023-04-16T22:22:27.621Z,29.23
2023-04-16T22:24:54.471Z,30.00
2023-04-16T22:27:22.340Z,29.65
2023-04-16T22:29:49.188Z,29.20
2023-04-16T22:32:16.348Z,25.55
2023-04-16T22:34:47.815Z,25.42
2023-04-16T22:37:14.620Z,25.35
2023-04-16T22:39:42.571Z,24.15
2023-04-16T22:42:09.636Z,25.60
2023-04-16T22:44:36.777Z,26.20
2023-04-16T22:47:04.001Z,29.20
2023-04-16T22:49:33.323Z,31.35
2023-04-16T22:52:03.088Z,26.25
2023-04-16T22:54:30.820Z,30.73
2023-04-16T22:56:57.970Z,35.35
2023-04-16T22:59:25.064Z,30.00
2023-04-16T23:01:56.183Z,29.88
2023-04-16T23:04:23.194Z,28.25
2023-04-16T23:06:49.953Z,29.45
2023-04-16T23:09:17.928Z,26.90
2023-04-16T23:11:44.836Z,27.95
2023-04-16T23:14:16.212Z,24.63
2023-04-16T23:16:43.729Z,24.70
2023-04-16T23:19:15.881Z,25.77
2023-04-16T23:21:42.737Z,28.40
2023-04-16T23:24:09.600Z,23.88
2023-04-16T23:26:36.422Z,21.85
2023-04-16T23:29:04.192Z,25.38
2023-04-16T23:31:31.402Z,26.52
2023-04-16T23:33:58.443Z,23.85
2023-04-16T23:36:25.221Z,27.30
2023-04-16T23:38:52.051Z,28.70
2023-04-16T23:41:18.805Z,30.40
2023-04-16T23:43:45.788Z,27.83
2023-04-16T23:46:12.836Z,30.80
2023-04-16T23:48:39.943Z,32.15
2023-04-16T23:51:06.883Z,33.30
2023-04-16T23:53:33.793Z,28.13
2023-04-16T23:56:00.558Z,29.23
2023-04-16T23:58:27.385Z,30.77
